sensor_id;sensor_type;location;lat;lon;timestamp;pressure;altitude;pressure_sealevel;temperature;humidity
15750;BME280;7976;52.526;13.326;2023-07-16T00:02:20;100275.94;;;24.53;72.97
15750;BME280;7976;52.526;13.326;2023-07-16T00:04:48;100276.94;;;24.52;72.38
15750;BME280;7976;52.526;13.326;2023-07-16T00:07:15;100276.94;;;24.52;72.12
15750;BME280;7976;52.526;13.326;2023-07-16T00:09:43;100279.47;;;24.54;71.86
15750;BME280;7976;52.526;13.326;2023-07-16T00:12:10;100267.91;;;24.53;71.95
15750;BME280;7976;52.526;13.326;2023-07-16T00:14:37;100264.25;;;24.54;72.14
15750;BME280;7976;52.526;13.326;2023-07-16T00:17:04;100261.25;;;24.57;71.50
15750;BME280;7976;52.526;13.326;2023-07-16T00:19:30;100262.91;;;24.58;71.86
15750;BME280;7976;52.526;13.326;2023-07-16T00:21:59;100252.03;;;24.60;72.21
15750;BME280;7976;52.526;13.326;2023-07-16T00:24:25;100276.13;;;24.60;72.08
15750;BME280;7976;52.526;13.326;2023-07-16T00:26:52;100267.59;;;24.56;71.85
15750;BME280;7976;52.526;13.326;2023-07-16T00:29:19;100266.91;;;24.54;72.22
15750;BME280;7976;52.526;13.326;2023-07-16T00:31:46;100280.31;;;24.54;72.50
15750;BME280;7976;52.526;13.326;2023-07-16T00:34:13;100283.97;;;24.53;72.48
15750;BME280;7976;52.526;13.326;2023-07-16T00:36:40;100282.97;;;24.54;71.92
15750;BME280;7976;52.526;13.326;2023-07-16T00:39:08;100291.00;;;24.54;72.21
15750;BME280;7976;52.526;13.326;2023-07-16T00:41:35;100290.16;;;24.54;72.15
15750;BME280;7976;52.526;13.326;2023-07-16T00:44:02;100300.03;;;24.53;72.61
15750;BME280;7976;52.526;13.326;2023-07-16T00:46:29;100316.94;;;24.54;71.86
15750;BME280;7976;52.526;13.326;2023-07-16T00:48:56;100323.13;;;24.54;72.05
15750;BME280;7976;52.526;13.326;2023-07-16T00:51:24;100343.69;;;24.54;72.42
15750;BME280;7976;52.526;13.326;2023-07-16T00:53:52;100366.94;;;24.53;72.22
15750;BME280;7976;52.526;13.326;2023-07-16T00:56:22;100377.66;;;24.53;72.14
15750;BME280;7976;52.526;13.326;2023-07-16T00:58:49;100399.06;;;24.53;72.40
15750;BME280;7976;52.526;13.326;2023-07-16T01:01:15;100388.84;;;24.49;72.54
15750;BME280;7976;52.526;13.326;2023-07-16T01:03:42;100400.00;;;24.44;72.89
15750;BME280;7976;52.526;13.326;2023-07-16T01:06:16;100406.66;;;24.40;73.49
15750;BME280;7976;52.526;13.326;2023-07-16T01:08:48;100421.63;;;24.33;73.30
15750;BME280;7976;52.526;13.326;2023-07-16T01:11:16;100444.06;;;24.32;73.23
15750;BME280;7976;52.526;13.326;2023-07-16T01:13:45;100479.47;;;24.26;73.77
15750;BME280;7976;52.526;13.326;2023-07-16T01:16:19;100498.78;;;24.20;74.14
15750;BME280;7976;52.526;13.326;2023-07-16T01:18:46;100516.94;;;24.17;74.96
15750;BME280;7976;52.526;13.326;2023-07-16T01:21:13;100517.00;;;24.07;75.71
15750;BME280;7976;52.526;13.326;2023-07-16T01:24:00;100537.00;;;24.03;76.38
15750;BME280;7976;52.526;13.326;2023-07-16T01:27:14;100554.91;;;24.03;76.35
15750;BME280;7976;52.526;13.326;2023-07-16T01:29:49;100564.31;;;23.97;77.21
15750;BME280;7976;52.526;13.326;2023-07-16T01:32:20;100578.28;;;23.91;77.49
15750;BME280;7976;52.526;13.326;2023-07-16T01:34:50;100578.56;;;23.88;77.58
15750;BME280;7976;52.526;13.326;2023-07-16T01:37:19;100570.84;;;23.85;77.80
15750;BME280;7976;52.526;13.326;2023-07-16T01:39:47;100574.81;;;23.81;77.47
15750;BME280;7976;52.526;13.326;2023-07-16T01:42:14;100574.25;;;23.78;78.01
15750;BME280;7976;52.526;13.326;2023-07-16T01:44:42;100571.72;;;23.76;77.55
15750;BME280;7976;52.526;13.326;2023-07-16T01:47:13;100575.38;;;23.75;77.37
15750;BME280;7976;52.526;13.326;2023-07-16T01:49:43;100575.53;;;23.74;76.68
15750;BME280;7976;52.526;13.326;2023-07-16T01:52:10;100565.69;;;23.74;76.80
15750;BME280;7976;52.526;13.326;2023-07-16T01:54:37;100566.50;;;23.75;76.90
15750;BME280;7976;52.526;13.326;2023-07-16T01:57:05;100580.72;;;23.75;76.33
15750;BME280;7976;52.526;13.326;2023-07-16T01:59:33;100579.03;;;23.74;76.25
15750;BME280;7976;52.526;13.326;2023-07-16T02:01:59;100586.38;;;23.72;75.80
15750;BME280;7976;52.526;13.326;2023-07-16T02:04:27;100593.81;;;23.69;76.05
15750;BME280;7976;52.526;13.326;2023-07-16T02:06:57;100591.31;;;23.67;76.04
15750;BME280;7976;52.526;13.326;2023-07-16T02:09:25;100575.69;;;23.63;76.25
15750;BME280;7976;52.526;13.326;2023-07-16T02:11:52;100576.81;;;23.60;76.19
15750;BME280;7976;52.526;13.326;2023-07-16T02:14:18;100571.91;;;23.55;76.77
15750;BME280;7976;52.526;13.326;2023-07-16T02:16:46;100552.50;;;23.53;76.86
15750;BME280;7976;52.526;13.326;2023-07-16T02:19:13;100558.00;;;23.52;76.59
15750;BME280;7976;52.526;13.326;2023-07-16T02:21:41;100573.47;;;23.48;76.59
15750;BME280;7976;52.526;13.326;2023-07-16T02:24:08;100565.31;;;23.40;77.20
15750;BME280;7976;52.526;13.326;2023-07-16T02:26:35;100575.47;;;23.27;78.46
15750;BME280;7976;52.526;13.326;2023-07-16T02:29:02;100567.44;;;23.08;79.95
15750;BME280;7976;52.526;13.326;2023-07-16T02:31:29;100578.38;;;22.86;81.38
15750;BME280;7976;52.526;13.326;2023-07-16T02:33:56;100586.22;;;22.69;83.14
15750;BME280;7976;52.526;13.326;2023-07-16T02:36:23;100574.25;;;22.54;84.26
15750;BME280;7976;52.526;13.326;2023-07-16T02:38:51;100551.75;;;22.47;85.79
15750;BME280;7976;52.526;13.326;2023-07-16T02:41:18;100544.00;;;22.44;86.47
15750;BME280;7976;52.526;13.326;2023-07-16T02:43:46;100547.22;;;22.37;87.53
15750;BME280;7976;52.526;13.326;2023-07-16T02:46:13;100551.53;;;22.29;88.52
15750;BME280;7976;52.526;13.326;2023-07-16T02:48:40;100561.91;;;22.22;89.39
15750;BME280;7976;52.526;13.326;2023-07-16T02:51:07;100574.38;;;22.12;89.85
15750;BME280;7976;52.526;13.326;2023-07-16T02:53:34;100585.84;;;22.03;91.34
15750;BME280;7976;52.526;13.326;2023-07-16T02:56:03;100581.03;;;21.97;91.80
15750;BME280;7976;52.526;13.326;2023-07-16T02:58:30;100579.63;;;21.93;92.09
15750;BME280;7976;52.526;13.326;2023-07-16T03:00:57;100580.59;;;21.92;93.11
15750;BME280;7976;52.526;13.326;2023-07-16T03:03:23;100584.09;;;21.93;93.25
15750;BME280;7976;52.526;13.326;2023-07-16T03:05:50;100584.97;;;21.93;93.37
15750;BME280;7976;52.526;13.326;2023-07-16T03:08:17;100574.31;;;21.93;93.68
15750;BME280;7976;52.526;13.326;2023-07-16T03:10:45;100556.59;;;21.92;93.39
15750;BME280;7976;52.526;13.326;2023-07-16T03:13:15;100560.97;;;21.93;93.97
15750;BME280;7976;52.526;13.326;2023-07-16T03:15:42;100555.38;;;21.96;94.24
15750;BME280;7976;52.526;13.326;2023-07-16T03:18:10;100545.41;;;21.98;94.10
15750;BME280;7976;52.526;13.326;2023-07-16T03:20:37;100561.13;;;22.01;94.46
15750;BME280;7976;52.526;13.326;2023-07-16T03:23:05;100550.19;;;22.04;94.41
15750;BME280;7976;52.526;13.326;2023-07-16T03:25:32;100530.53;;;22.05;94.42
15750;BME280;7976;52.526;13.326;2023-07-16T03:27:59;100516.25;;;22.06;94.32
15750;BME280;7976;52.526;13.326;2023-07-16T03:30:27;100521.31;;;22.09;94.29
15750;BME280;7976;52.526;13.326;2023-07-16T03:32:54;100555.97;;;22.09;93.58
15750;BME280;7976;52.526;13.326;2023-07-16T03:35:24;100566.78;;;22.08;94.07
15750;BME280;7976;52.526;13.326;2023-07-16T03:37:51;100567.88;;;22.05;93.97
15750;BME280;7976;52.526;13.326;2023-07-16T03:40:25;100556.38;;;22.05;94.01
15750;BME280;7976;52.526;13.326;2023-07-16T03:42:52;100518.22;;;22.04;94.06
15750;BME280;7976;52.526;13.326;2023-07-16T03:45:20;100547.66;;;22.03;94.10
15750;BME280;7976;52.526;13.326;2023-07-16T03:47:48;100562.22;;;21.99;93.58
15750;BME280;7976;52.526;13.326;2023-07-16T03:50:15;100568.13;;;21.93;94.19
15750;BME280;7976;52.526;13.326;2023-07-16T03:52:41;100567.81;;;21.86;94.29
15750;BME280;7976;52.526;13.326;2023-07-16T03:55:09;100571.44;;;21.85;94.32
15750;BME280;7976;52.526;13.326;2023-07-16T03:57:36;100567.81;;;21.86;94.38
15750;BME280;7976;52.526;13.326;2023-07-16T04:00:05;100565.84;;;21.88;94.34
15750;BME280;7976;52.526;13.326;2023-07-16T04:02:40;100569.94;;;21.92;93.65
15750;BME280;7976;52.526;13.326;2023-07-16T04:05:12;100578.66;;;21.94;93.56
15750;BME280;7976;52.526;13.326;2023-07-16T04:07:39;100568.38;;;21.90;93.02
15750;BME280;7976;52.526;13.326;2023-07-16T04:10:07;100564.41;;;21.84;93.54
15750;BME280;7976;52.526;13.326;2023-07-16T04:12:34;100567.81;;;21.86;93.29
15750;BME280;7976;52.526;13.326;2023-07-16T04:15:01;100564.88;;;21.89;92.83
15750;BME280;7976;52.526;13.326;2023-07-16T04:17:33;100546.22;;;21.89;93.06
15750;BME280;7976;52.526;13.326;2023-07-16T04:20:00;100543.28;;;21.92;92.31
15750;BME280;7976;52.526;13.326;2023-07-16T04:22:28;100565.59;;;21.91;92.55
15750;BME280;7976;52.526;13.326;2023-07-16T04:24:57;100570.06;;;21.91;92.40
15750;BME280;7976;52.526;13.326;2023-07-16T04:27:24;100576.25;;;21.91;92.57
15750;BME280;7976;52.526;13.326;2023-07-16T04:29:51;100578.78;;;21.93;92.53
15750;BME280;7976;52.526;13.326;2023-07-16T04:32:18;100588.31;;;21.95;92.45
15750;BME280;7976;52.526;13.326;2023-07-16T04:34:45;100590.75;;;21.98;92.43
15750;BME280;7976;52.526;13.326;2023-07-16T04:37:11;100593.41;;;21.98;92.11
15750;BME280;7976;52.526;13.326;2023-07-16T04:39:39;100590.03;;;21.96;91.69
15750;BME280;7976;52.526;13.326;2023-07-16T04:42:06;100581.31;;;21.94;91.88
15750;BME280;7976;52.526;13.326;2023-07-16T04:44:33;100580.59;;;21.92;91.50
15750;BME280;7976;52.526;13.326;2023-07-16T04:47:00;100591.25;;;21.92;91.67
15750;BME280;7976;52.526;13.326;2023-07-16T04:49:27;100599.38;;;21.91;91.02
15750;BME280;7976;52.526;13.326;2023-07-16T04:51:53;100606.53;;;21.90;91.36
15750;BME280;7976;52.526;13.326;2023-07-16T04:54:20;100622.53;;;21.90;91.01
15750;BME280;7976;52.526;13.326;2023-07-16T04:56:48;100627.03;;;21.90;91.36
15750;BME280;7976;52.526;13.326;2023-07-16T04:59:15;100623.38;;;21.91;91.09
15750;BME280;7976;52.526;13.326;2023-07-16T05:01:42;100624.81;;;21.95;90.88
15750;BME280;7976;52.526;13.326;2023-07-16T05:04:09;100638.97;;;21.95;90.44
15750;BME280;7976;52.526;13.326;2023-07-16T05:06:36;100653.75;;;21.99;90.80
15750;BME280;7976;52.526;13.326;2023-07-16T05:09:03;100670.44;;;22.01;89.97
15750;BME280;7976;52.526;13.326;2023-07-16T05:11:30;100656.84;;;22.04;90.35
15750;BME280;7976;52.526;13.326;2023-07-16T05:14:00;100652.97;;;22.08;90.18
15750;BME280;7976;52.526;13.326;2023-07-16T05:16:27;100667.25;;;22.07;90.10
15750;BME280;7976;52.526;13.326;2023-07-16T05:18:54;100667.84;;;22.11;90.02
15750;BME280;7976;52.526;13.326;2023-07-16T05:21:21;100647.94;;;22.15;89.65
15750;BME280;7976;52.526;13.326;2023-07-16T05:23:47;100651.19;;;22.18;90.10
15750;BME280;7976;52.526;13.326;2023-07-16T05:26:14;100659.88;;;22.20;89.86
15750;BME280;7976;52.526;13.326;2023-07-16T05:28:41;100661.31;;;22.24;89.59
15750;BME280;7976;52.526;13.326;2023-07-16T05:31:09;100652.66;;;22.32;89.25
15750;BME280;7976;52.526;13.326;2023-07-16T05:33:36;100661.91;;;22.37;88.84
15750;BME280;7976;52.526;13.326;2023-07-16T05:36:04;100671.09;;;22.45;88.77
15750;BME280;7976;52.526;13.326;2023-07-16T05:38:30;100657.59;;;22.46;88.37
15750;BME280;7976;52.526;13.326;2023-07-16T05:41:01;100670.00;;;22.47;88.59
15750;BME280;7976;52.526;13.326;2023-07-16T05:43:28;100670.09;;;22.46;88.13
15750;BME280;7976;52.526;13.326;2023-07-16T05:45:55;100676.41;;;22.45;87.95
15750;BME280;7976;52.526;13.326;2023-07-16T05:48:24;100671.94;;;22.45;88.07
15750;BME280;7976;52.526;13.326;2023-07-16T05:50:51;100670.38;;;22.42;88.08
15750;BME280;7976;52.526;13.326;2023-07-16T05:53:17;100675.00;;;22.40;87.77
15750;BME280;7976;52.526;13.326;2023-07-16T05:55:44;100672.47;;;22.39;88.39
15750;BME280;7976;52.526;13.326;2023-07-16T05:58:11;100676.69;;;22.42;88.11
15750;BME280;7976;52.526;13.326;2023-07-16T06:00:38;100673.47;;;22.48;88.15
15750;BME280;7976;52.526;13.326;2023-07-16T06:03:06;100668.59;;;22.53;88.03
15750;BME280;7976;52.526;13.326;2023-07-16T06:05:34;100678.06;;;22.57;87.55
15750;BME280;7976;52.526;13.326;2023-07-16T06:08:03;100683.13;;;22.60;87.51
15750;BME280;7976;52.526;13.326;2023-07-16T06:10:30;100679.34;;;22.62;87.13
15750;BME280;7976;52.526;13.326;2023-07-16T06:12:56;100683.28;;;22.68;87.41
15750;BME280;7976;52.526;13.326;2023-07-16T06:15:23;100682.19;;;22.70;86.80
15750;BME280;7976;52.526;13.326;2023-07-16T06:17:50;100679.22;;;22.73;86.79
15750;BME280;7976;52.526;13.326;2023-07-16T06:20:17;100686.09;;;22.76;86.63
15750;BME280;7976;52.526;13.326;2023-07-16T06:22:46;100692.03;;;22.79;86.26
15750;BME280;7976;52.526;13.326;2023-07-16T06:25:12;100686.16;;;22.85;86.43
15750;BME280;7976;52.526;13.326;2023-07-16T06:27:39;100702.47;;;22.92;86.17
15750;BME280;7976;52.526;13.326;2023-07-16T06:30:07;100690.94;;;23.01;85.95
15750;BME280;7976;52.526;13.326;2023-07-16T06:32:34;100685.66;;;23.10;85.36
15750;BME280;7976;52.526;13.326;2023-07-16T06:35:01;100693.09;;;23.16;85.30
15750;BME280;7976;52.526;13.326;2023-07-16T06:37:28;100700.59;;;23.22;84.54
15750;BME280;7976;52.526;13.326;2023-07-16T06:39:57;100701.16;;;23.26;84.67
15750;BME280;7976;52.526;13.326;2023-07-16T06:42:23;100699.47;;;23.34;84.20
15750;BME280;7976;52.526;13.326;2023-07-16T06:44:50;100700.63;;;23.41;83.94
15750;BME280;7976;52.526;13.326;2023-07-16T06:47:17;100701.19;;;23.45;83.04
15750;BME280;7976;52.526;13.326;2023-07-16T06:49:44;100706.00;;;23.51;82.77
15750;BME280;7976;52.526;13.326;2023-07-16T06:52:19;100704.28;;;23.59;82.69
15750;BME280;7976;52.526;13.326;2023-07-16T06:54:46;100698.94;;;23.69;81.79
15750;BME280;7976;52.526;13.326;2023-07-16T06:57:14;100708.50;;;23.81;81.75
15750;BME280;7976;52.526;13.326;2023-07-16T06:59:41;100717.38;;;23.91;81.05
15750;BME280;7976;52.526;13.326;2023-07-16T07:02:08;100719.75;;;23.94;80.80
15750;BME280;7976;52.526;13.326;2023-07-16T07:04:34;100712.69;;;23.93;80.41
15750;BME280;7976;52.526;13.326;2023-07-16T07:07:01;100719.59;;;23.96;79.94
15750;BME280;7976;52.526;13.326;2023-07-16T07:09:28;100722.59;;;24.02;79.82
15750;BME280;7976;52.526;13.326;2023-07-16T07:11:55;100728.75;;;24.12;79.63
15750;BME280;7976;52.526;13.326;2023-07-16T07:14:23;100731.56;;;24.20;79.31
15750;BME280;7976;52.526;13.326;2023-07-16T07:16:50;100732.13;;;24.24;78.54
15750;BME280;7976;52.526;13.326;2023-07-16T07:19:17;100730.69;;;24.20;78.11
15750;BME280;7976;52.526;13.326;2023-07-16T07:21:44;100732.44;;;24.11;77.95
15750;BME280;7976;52.526;13.326;2023-07-16T07:24:12;100727.09;;;24.11;77.66
15750;BME280;7976;52.526;13.326;2023-07-16T07:26:38;100737.78;;;24.11;77.82
15750;BME280;7976;52.526;13.326;2023-07-16T07:29:05;100739.47;;;24.12;77.44
15750;BME280;7976;52.526;13.326;2023-07-16T07:31:33;100736.91;;;24.20;77.15
15750;BME280;7976;52.526;13.326;2023-07-16T07:34:00;100741.53;;;24.37;76.30
15750;BME280;7976;52.526;13.326;2023-07-16T07:36:28;100756.84;;;24.54;75.81
15750;BME280;7976;52.526;13.326;2023-07-16T07:38:55;100755.53;;;24.58;75.59
15750;BME280;7976;52.526;13.326;2023-07-16T07:41:22;100755.69;;;24.57;75.31
15750;BME280;7976;52.526;13.326;2023-07-16T07:43:49;100756.44;;;24.49;75.54
15750;BME280;7976;52.526;13.326;2023-07-16T07:46:16;100760.25;;;24.37;75.44
15750;BME280;7976;52.526;13.326;2023-07-16T07:48:44;100761.09;;;24.28;75.31
15750;BME280;7976;52.526;13.326;2023-07-16T07:51:11;100765.06;;;24.34;74.62
15750;BME280;7976;52.526;13.326;2023-07-16T07:53:38;100767.44;;;24.46;74.85
15750;BME280;7976;52.526;13.326;2023-07-16T07:56:05;100770.34;;;24.62;73.95
15750;BME280;7976;52.526;13.326;2023-07-16T07:58:32;100761.56;;;24.80;73.22
15750;BME280;7976;52.526;13.326;2023-07-16T08:01:04;100766.00;;;24.98;72.26
15750;BME280;7976;52.526;13.326;2023-07-16T08:03:31;100780.06;;;25.00;71.36
15750;BME280;7976;52.526;13.326;2023-07-16T08:05:59;100771.94;;;24.92;71.61
15750;BME280;7976;52.526;13.326;2023-07-16T08:08:26;100775.13;;;24.78;71.06
15750;BME280;7976;52.526;13.326;2023-07-16T08:10:54;100785.69;;;24.60;71.29
15750;BME280;7976;52.526;13.326;2023-07-16T08:13:21;100779.09;;;24.45;71.02
15750;BME280;7976;52.526;13.326;2023-07-16T08:15:48;100778.00;;;24.38;70.83
15750;BME280;7976;52.526;13.326;2023-07-16T08:18:14;100785.63;;;24.43;70.28
15750;BME280;7976;52.526;13.326;2023-07-16T08:20:41;100780.06;;;24.54;70.18
15750;BME280;7976;52.526;13.326;2023-07-16T08:23:09;100786.53;;;24.70;69.07
15750;BME280;7976;52.526;13.326;2023-07-16T08:25:36;100793.09;;;24.86;68.50
15750;BME280;7976;52.526;13.326;2023-07-16T08:28:04;100789.25;;;24.98;67.60
15750;BME280;7976;52.526;13.326;2023-07-16T08:30:32;100782.03;;;25.08;67.07
15750;BME280;7976;52.526;13.326;2023-07-16T08:32:59;100790.56;;;25.21;66.08
15750;BME280;7976;52.526;13.326;2023-07-16T08:35:26;100790.38;;;25.32;65.66
15750;BME280;7976;52.526;13.326;2023-07-16T08:37:53;100791.31;;;25.40;64.96
15750;BME280;7976;52.526;13.326;2023-07-16T08:40:21;100797.22;;;25.44;63.44
15750;BME280;7976;52.526;13.326;2023-07-16T08:42:49;100804.69;;;25.50;63.19
15750;BME280;7976;52.526;13.326;2023-07-16T08:45:18;100804.22;;;25.54;62.34
15750;BME280;7976;52.526;13.326;2023-07-16T08:47:45;100804.44;;;25.61;61.97
15750;BME280;7976;52.526;13.326;2023-07-16T08:50:13;100800.88;;;25.70;61.26
15750;BME280;7976;52.526;13.326;2023-07-16T08:52:40;100800.94;;;25.78;61.23
15750;BME280;7976;52.526;13.326;2023-07-16T08:55:10;100787.28;;;25.89;60.82
15750;BME280;7976;52.526;13.326;2023-07-16T08:57:40;100800.66;;;25.98;60.38
15750;BME280;7976;52.526;13.326;2023-07-16T09:00:09;100801.22;;;26.02;59.59
15750;BME280;7976;52.526;13.326;2023-07-16T09:02:36;100811.63;;;26.05;58.82
15750;BME280;7976;52.526;13.326;2023-07-16T09:05:04;100810.84;;;25.95;58.59
15750;BME280;7976;52.526;13.326;2023-07-16T09:07:31;100818.72;;;25.79;58.32
15750;BME280;7976;52.526;13.326;2023-07-16T09:09:59;100820.88;;;25.75;58.85
15750;BME280;7976;52.526;13.326;2023-07-16T09:12:27;100810.66;;;25.79;58.56
15750;BME280;7976;52.526;13.326;2023-07-16T09:14:56;100825.16;;;25.86;58.06
15750;BME280;7976;52.526;13.326;2023-07-16T09:17:25;100816.53;;;25.92;58.31
15750;BME280;7976;52.526;13.326;2023-07-16T09:19:52;100834.38;;;26.01;57.62
15750;BME280;7976;52.526;13.326;2023-07-16T09:22:20;100832.56;;;26.02;57.76
15750;BME280;7976;52.526;13.326;2023-07-16T09:24:48;100830.22;;;25.89;57.10
15750;BME280;7976;52.526;13.326;2023-07-16T09:27:15;100823.19;;;25.88;56.82
15750;BME280;7976;52.526;13.326;2023-07-16T09:29:41;100832.78;;;25.90;56.56
15750;BME280;7976;52.526;13.326;2023-07-16T09:32:10;100827.25;;;25.92;55.73
15750;BME280;7976;52.526;13.326;2023-07-16T09:34:37;100814.22;;;25.97;56.12
15750;BME280;7976;52.526;13.326;2023-07-16T09:37:05;100811.63;;;26.05;55.41
15750;BME280;7976;52.526;13.326;2023-07-16T09:39:33;100825.75;;;26.07;55.36
15750;BME280;7976;52.526;13.326;2023-07-16T09:42:02;100830.44;;;26.05;55.36
15750;BME280;7976;52.526;13.326;2023-07-16T09:44:30;100822.38;;;26.05;54.77
15750;BME280;7976;52.526;13.326;2023-07-16T09:46:57;100815.41;;;26.12;55.04
15750;BME280;7976;52.526;13.326;2023-07-16T09:49:28;100823.44;;;26.12;54.57
15750;BME280;7976;52.526;13.326;2023-07-16T09:51:57;100833.09;;;26.05;55.00
15750;BME280;7976;52.526;13.326;2023-07-16T09:54:25;100825.22;;;26.04;54.79
15750;BME280;7976;52.526;13.326;2023-07-16T09:56:57;100828.28;;;26.09;53.87
15750;BME280;7976;52.526;13.326;2023-07-16T09:59:29;100816.91;;;26.15;53.17
15750;BME280;7976;52.526;13.326;2023-07-16T10:01:57;100830.25;;;26.24;52.75
15750;BME280;7976;52.526;13.326;2023-07-16T10:04:25;100824.66;;;26.35;52.65
15750;BME280;7976;52.526;13.326;2023-07-16T10:06:54;100831.38;;;26.39;52.75
15750;BME280;7976;52.526;13.326;2023-07-16T10:09:39;100838.53;;;26.31;53.43
15750;BME280;7976;52.526;13.326;2023-07-16T10:12:17;100826.97;;;26.30;53.72
15750;BME280;7976;52.526;13.326;2023-07-16T10:14:48;100832.16;;;26.32;53.89
15750;BME280;7976;52.526;13.326;2023-07-16T10:17:16;100832.38;;;26.38;53.90
15750;BME280;7976;52.526;13.326;2023-07-16T10:19:54;100831.00;;;26.34;54.26
15750;BME280;7976;52.526;13.326;2023-07-16T10:22:33;100840.00;;;26.25;54.18
15750;BME280;7976;52.526;13.326;2023-07-16T10:25:01;100821.53;;;26.22;54.22
15750;BME280;7976;52.526;13.326;2023-07-16T10:27:30;100828.03;;;26.37;53.74
15750;BME280;7976;52.526;13.326;2023-07-16T10:29:58;100833.50;;;26.53;53.70
15750;BME280;7976;52.526;13.326;2023-07-16T10:32:28;100832.56;;;26.62;53.86
15750;BME280;7976;52.526;13.326;2023-07-16T10:34:57;100830.94;;;26.69;54.13
15750;BME280;7976;52.526;13.326;2023-07-16T10:37:25;100840.94;;;26.77;53.98
15750;BME280;7976;52.526;13.326;2023-07-16T10:39:54;100841.44;;;26.80;53.87
15750;BME280;7976;52.526;13.326;2023-07-16T10:42:24;100836.31;;;26.69;54.14
15750;BME280;7976;52.526;13.326;2023-07-16T10:44:52;100839.94;;;26.60;54.43
15750;BME280;7976;52.526;13.326;2023-07-16T10:47:22;100837.94;;;26.62;53.62
15750;BME280;7976;52.526;13.326;2023-07-16T10:49:50;100846.25;;;26.69;53.58
15750;BME280;7976;52.526;13.326;2023-07-16T10:52:20;100836.28;;;26.87;53.23
15750;BME280;7976;52.526;13.326;2023-07-16T10:54:47;100832.03;;;27.10;52.87
15750;BME280;7976;52.526;13.326;2023-07-16T10:57:14;100833.81;;;27.27;52.83
15750;BME280;7976;52.526;13.326;2023-07-16T10:59:42;100840.94;;;27.36;52.51
15750;BME280;7976;52.526;13.326;2023-07-16T11:02:12;100840.44;;;27.33;52.05
15750;BME280;7976;52.526;13.326;2023-07-16T11:04:40;100836.28;;;27.21;51.90
15750;BME280;7976;52.526;13.326;2023-07-16T11:07:09;100841.00;;;27.18;52.21
15750;BME280;7976;52.526;13.326;2023-07-16T11:09:43;100840.34;;;27.25;52.02
15750;BME280;7976;52.526;13.326;2023-07-16T11:12:12;100835.25;;;27.13;52.14
15750;BME280;7976;52.526;13.326;2023-07-16T11:14:43;100836.69;;;27.00;52.13
15750;BME280;7976;52.526;13.326;2023-07-16T11:17:11;100837.50;;;26.92;52.43
15750;BME280;7976;52.526;13.326;2023-07-16T11:19:39;100831.13;;;26.93;52.38
15750;BME280;7976;52.526;13.326;2023-07-16T11:22:08;100837.97;;;26.88;52.44
15750;BME280;7976;52.526;13.326;2023-07-16T11:24:41;100840.06;;;26.76;52.94
15750;BME280;7976;52.526;13.326;2023-07-16T11:27:13;100842.81;;;26.84;52.71
15750;BME280;7976;52.526;13.326;2023-07-16T11:29:46;100841.91;;;27.01;53.11
15750;BME280;7976;52.526;13.326;2023-07-16T11:32:14;100844.25;;;27.04;52.46
15750;BME280;7976;52.526;13.326;2023-07-16T11:34:53;100839.00;;;26.95;52.30
15750;BME280;7976;52.526;13.326;2023-07-16T11:37:21;100838.50;;;26.91;52.65
15750;BME280;7976;52.526;13.326;2023-07-16T11:39:49;100839.22;;;27.01;52.28
15750;BME280;7976;52.526;13.326;2023-07-16T11:42:23;100832.03;;;27.10;52.05
15750;BME280;7976;52.526;13.326;2023-07-16T11:44:50;100827.53;;;27.18;51.20
15750;BME280;7976;52.526;13.326;2023-07-16T11:47:17;100829.75;;;27.23;50.78
15750;BME280;7976;52.526;13.326;2023-07-16T11:49:44;100827.34;;;27.38;50.47
15750;BME280;7976;52.526;13.326;2023-07-16T11:52:11;100837.63;;;27.50;49.73
15750;BME280;7976;52.526;13.326;2023-07-16T11:54:38;100841.16;;;27.51;48.82
15750;BME280;7976;52.526;13.326;2023-07-16T11:57:06;100834.75;;;27.52;48.05
15750;BME280;7976;52.526;13.326;2023-07-16T11:59:33;100833.09;;;27.59;47.52
15750;BME280;7976;52.526;13.326;2023-07-16T12:02:01;100838.50;;;27.67;47.45
15750;BME280;7976;52.526;13.326;2023-07-16T12:04:28;100842.22;;;27.74;46.96
15750;BME280;7976;52.526;13.326;2023-07-16T12:06:55;100836.84;;;27.82;46.70
15750;BME280;7976;52.526;13.326;2023-07-16T12:09:22;100839.91;;;27.87;45.82
15750;BME280;7976;52.526;13.326;2023-07-16T12:11:49;100844.84;;;27.91;45.51
15750;BME280;7976;52.526;13.326;2023-07-16T12:14:17;100832.06;;;28.01;45.01
15750;BME280;7976;52.526;13.326;2023-07-16T12:16:44;100846.03;;;28.13;44.63
15750;BME280;7976;52.526;13.326;2023-07-16T12:19:11;100851.59;;;28.19;43.47
15750;BME280;7976;52.526;13.326;2023-07-16T12:21:38;100856.97;;;28.11;42.67
15750;BME280;7976;52.526;13.326;2023-07-16T12:24:05;100854.78;;;28.07;42.07
15750;BME280;7976;52.526;13.326;2023-07-16T12:26:32;100841.47;;;28.13;41.56
15750;BME280;7976;52.526;13.326;2023-07-16T12:28:59;100848.41;;;28.24;41.37
15750;BME280;7976;52.526;13.326;2023-07-16T12:31:30;100854.13;;;28.29;40.83
15750;BME280;7976;52.526;13.326;2023-07-16T12:33:58;100849.91;;;28.34;40.20
15750;BME280;7976;52.526;13.326;2023-07-16T12:36:25;100854.47;;;28.34;39.06
15750;BME280;7976;52.526;13.326;2023-07-16T12:38:52;100855.66;;;28.40;39.08
15750;BME280;7976;52.526;13.326;2023-07-16T12:41:18;100852.63;;;28.51;39.21
15750;BME280;7976;52.526;13.326;2023-07-16T12:43:46;100852.63;;;28.59;38.65
15750;BME280;7976;52.526;13.326;2023-07-16T12:46:13;100851.44;;;28.61;38.28
15750;BME280;7976;52.526;13.326;2023-07-16T12:48:42;100846.75;;;28.63;38.09
15750;BME280;7976;52.526;13.326;2023-07-16T12:51:09;100848.59;;;28.63;37.73
15750;BME280;7976;52.526;13.326;2023-07-16T12:53:35;100847.72;;;28.62;37.70
15750;BME280;7976;52.526;13.326;2023-07-16T12:56:02;100855.50;;;28.65;37.70